Time;durP1;ratioP1;P1;durP2;ratioP2;P2;SDS_P1;SDS_P2;PMS_P1;PMS_P2;Temp;Humidity;BMP_temperature;BMP_pressure;BME280_temperature;BME280_humidity;BME280_pressure;Samples;Min_cycle;Max_cycle;Signal;HPM_P1;HPM_P2
2023/03/15 00:02:09;;;;;;;3.30;1.30;;;;;;;-128.00;-1.00;-1.00;18436;296;7504609;-31
2023/03/15 00:04:35;;;;;;;2.60;0.80;;;;;;;-128.00;-1.00;-1.00;18476;297;7504671;-31
2023/03/15 00:07:02;;;;;;;9.30;0.90;;;;;;;-128.00;-1.00;-1.00;18455;321;7504590;-34
2023/03/15 00:09:27;;;;;;;6.80;1.10;;;;;;;-128.00;-1.00;-1.00;18474;297;7504543;-34
2023/03/15 00:11:54;;;;;;;4.00;0.60;;;;;;;-128.00;-1.00;-1.00;18859;297;7505391;-30
2023/03/15 00:14:20;;;;;;;4.80;0.90;;;;;;;-128.00;-1.00;-1.00;18835;299;7505575;-30
2023/03/15 00:16:46;;;;;;;8.60;0.90;;;;;;;-128.00;-1.00;-1.00;18876;297;7504290;-33
2023/03/15 00:19:13;;;;;;;5.40;1.30;;;;;;;-128.00;-1.00;-1.00;18868;297;7504207;-30
2023/03/15 00:21:42;;;;;;;5.50;1.50;;;;;;;-128.00;-1.00;-1.00;18849;297;7504827;-31
2023/03/15 00:24:10;;;;;;;3.60;1.70;;;;;;;-128.00;-1.00;-1.00;18469;297;7505757;-34
2023/03/15 00:26:36;;;;;;;2.40;0.70;;;;;;;-128.00;-1.00;-1.00;18446;297;7504358;-30
2023/03/15 00:29:02;;;;;;;2.40;1.10;;;;;;;-128.00;-1.00;-1.00;18476;297;7504437;-36
2023/03/15 00:31:27;;;;;;;2.70;2.10;;;;;;;-128.00;-1.00;-1.00;18491;297;7504822;-31
2023/03/15 00:33:53;;;;;;;4.00;2.60;;;;;;;-128.00;-1.00;-1.00;18466;320;7504767;-32
2023/03/15 00:36:23;;;;;;;9.30;2.50;;;;;;;-128.00;-1.00;-1.00;18878;297;7504504;-31
2023/03/15 00:38:49;;;;;;;4.30;2.20;;;;;;;-128.00;-1.00;-1.00;18472;297;7504647;-34
2023/03/15 00:41:15;;;;;;;11.90;2.20;;;;;;;-128.00;-1.00;-1.00;18453;297;7504371;-34
2023/03/15 00:43:42;;;;;;;8.40;1.90;;;;;;;-128.00;-1.00;-1.00;18464;297;7506323;-34
2023/03/15 00:46:08;;;;;;;5.90;2.50;;;;;;;-128.00;-1.00;-1.00;18458;297;7506935;-31
2023/03/15 00:48:34;;;;;;;8.60;1.90;;;;;;;-128.00;-1.00;-1.00;18477;296;7505535;-32
2023/03/15 00:51:08;;;;;;;16.40;2.40;;;;;;;-128.00;-1.00;-1.00;18460;297;7505310;-31
2023/03/15 00:53:34;;;;;;;7.90;2.10;;;;;;;-128.00;-1.00;-1.00;18465;285;7506125;-31
2023/03/15 00:56:05;;;;;;;1.50;1.00;;;;;;;-128.00;-1.00;-1.00;18497;297;7504945;-30
2023/03/15 00:58:30;;;;;;;6.50;2.00;;;;;;;-128.00;-1.00;-1.00;18479;288;7504609;-31
2023/03/15 01:00:56;;;;;;;6.60;1.60;;;;;;;-128.00;-1.00;-1.00;18483;297;7505041;-34
2023/03/15 01:03:23;;;;;;;6.70;2.50;;;;;;;-128.00;-1.00;-1.00;18479;289;7505145;-34
2023/03/15 01:05:48;;;;;;;4.80;1.80;;;;;;;-128.00;-1.00;-1.00;18476;297;7505699;-34
2023/03/15 01:08:14;;;;;;;2.60;0.90;;;;;;;-128.00;-1.00;-1.00;18459;320;7504712;-31
2023/03/15 01:10:40;;;;;;;4.50;2.20;;;;;;;-128.00;-1.00;-1.00;18485;296;7505176;-33
2023/03/15 01:13:06;;;;;;;10.40;1.70;;;;;;;-128.00;-1.00;-1.00;18473;289;7505817;-34
2023/03/15 01:15:31;;;;;;;2.40;1.30;;;;;;;-128.00;-1.00;-1.00;18477;285;7504973;-34
2023/03/15 01:17:57;;;;;;;2.10;1.10;;;;;;;-128.00;-1.00;-1.00;18872;285;7505142;-30
2023/03/15 01:20:24;;;;;;;11.90;4.70;;;;;;;-128.00;-1.00;-1.00;18875;285;7505644;-36
2023/03/15 01:22:50;;;;;;;7.00;1.80;;;;;;;-128.00;-1.00;-1.00;18884;348;7504646;-33
2023/03/15 01:25:16;;;;;;;3.30;1.30;;;;;;;-128.00;-1.00;-1.00;18852;289;7504985;-34
2023/03/15 01:27:43;;;;;;;5.60;1.90;;;;;;;-128.00;-1.00;-1.00;18862;348;7504996;-33
2023/03/15 01:30:09;;;;;;;10.10;2.40;;;;;;;-128.00;-1.00;-1.00;18872;348;7505310;-33
2023/03/15 01:32:35;;;;;;;4.00;1.00;;;;;;;-128.00;-1.00;-1.00;18467;309;7504253;-30
2023/03/15 01:35:01;;;;;;;4.60;1.70;;;;;;;-128.00;-1.00;-1.00;18871;290;7504536;-34
2023/03/15 01:37:28;;;;;;;7.70;2.80;;;;;;;-128.00;-1.00;-1.00;18851;320;7504680;-35
2023/03/15 01:39:54;;;;;;;3.60;2.10;;;;;;;-128.00;-1.00;-1.00;18876;289;7506141;-35
2023/03/15 01:42:20;;;;;;;4.80;2.20;;;;;;;-128.00;-1.00;-1.00;18865;289;7504855;-35
2023/03/15 01:44:58;;;;;;;9.20;1.70;;;;;;;-128.00;-1.00;-1.00;18858;297;7505242;-35
2023/03/15 01:47:27;;;;;;;2.80;2.20;;;;;;;-128.00;-1.00;-1.00;18469;297;7506049;-35
2023/03/15 01:50:07;;;;;;;6.60;2.00;;;;;;;-128.00;-1.00;-1.00;18468;296;7505883;-34
2023/03/15 01:52:36;;;;;;;5.90;1.90;;;;;;;-128.00;-1.00;-1.00;18467;289;7504797;-31
2023/03/15 01:55:08;;;;;;;3.20;2.50;;;;;;;-128.00;-1.00;-1.00;18469;285;7506704;-31
2023/03/15 01:57:37;;;;;;;3.00;2.00;;;;;;;-128.00;-1.00;-1.00;18451;289;7505769;-31
2023/03/15 02:00:10;;;;;;;3.60;1.70;;;;;;;-128.00;-1.00;-1.00;18450;297;7504735;-34
2023/03/15 02:02:39;;;;;;;12.20;3.00;;;;;;;-128.00;-1.00;-1.00;18460;348;7505168;-33
2023/03/15 02:05:08;;;;;;;9.40;1.40;;;;;;;-128.00;-1.00;-1.00;18452;324;7504423;-34
2023/03/15 02:07:34;;;;;;;10.00;1.90;;;;;;;-128.00;-1.00;-1.00;18482;285;7506912;-30
2023/03/15 02:10:09;;;;;;;1.60;1.00;;;;;;;-128.00;-1.00;-1.00;18471;285;7506063;-30
2023/03/15 02:12:37;;;;;;;2.50;1.10;;;;;;;-128.00;-1.00;-1.00;18459;324;7504637;-33
2023/03/15 02:15:04;;;;;;;8.70;1.80;;;;;;;-128.00;-1.00;-1.00;18474;337;7505191;-33
2023/03/15 02:17:38;;;;;;;18.60;2.90;;;;;;;-128.00;-1.00;-1.00;18465;296;7504419;-33
2023/03/15 02:20:28;;;;;;;4.20;2.20;;;;;;;-128.00;-1.00;-1.00;18458;307;7504390;-34
2023/03/15 02:22:56;;;;;;;3.80;2.30;;;;;;;-128.00;-1.00;-1.00;18457;297;7504394;-34
2023/03/15 02:25:41;;;;;;;2.70;0.70;;;;;;;-128.00;-1.00;-1.00;18475;285;7504444;-34
2023/03/15 02:28:09;;;;;;;6.70;2.10;;;;;;;-128.00;-1.00;-1.00;18472;297;7506074;-30
2023/03/15 02:30:35;;;;;;;1.30;1.00;;;;;;;-128.00;-1.00;-1.00;18477;289;7504397;-30
2023/03/15 02:33:02;;;;;;;11.10;2.40;;;;;;;-128.00;-1.00;-1.00;18885;332;7504828;-33
2023/03/15 02:35:30;;;;;;;7.30;1.80;;;;;;;-128.00;-1.00;-1.00;18441;297;7505683;-31
2023/03/15 02:38:01;;;;;;;3.40;1.20;;;;;;;-128.00;-1.00;-1.00;18465;297;7504931;-34
2023/03/15 02:40:28;;;;;;;7.90;3.90;;;;;;;-128.00;-1.00;-1.00;18440;289;7507134;-29
2023/03/15 02:42:55;;;;;;;3.80;1.20;;;;;;;-128.00;-1.00;-1.00;18446;299;7505423;-35
2023/03/15 02:45:21;;;;;;;2.20;1.10;;;;;;;-128.00;-1.00;-1.00;18466;299;7505704;-30
2023/03/15 02:47:47;;;;;;;3.40;1.30;;;;;;;-128.00;-1.00;-1.00;18474;348;7506280;-30
2023/03/15 02:50:13;;;;;;;7.50;1.50;;;;;;;-128.00;-1.00;-1.00;18875;297;7505183;-30
2023/03/15 02:52:40;;;;;;;8.90;1.80;;;;;;;-128.00;-1.00;-1.00;18849;299;7504982;-31
2023/03/15 02:55:07;;;;;;;5.30;1.10;;;;;;;-128.00;-1.00;-1.00;18860;348;7505142;-34
2023/03/15 02:57:32;;;;;;;1.50;0.60;;;;;;;-128.00;-1.00;-1.00;18471;341;7506228;-33
2023/03/15 03:00:05;;;;;;;7.50;1.70;;;;;;;-128.00;-1.00;-1.00;18866;297;7504716;-30
2023/03/15 03:02:32;;;;;;;4.70;1.40;;;;;;;-128.00;-1.00;-1.00;18449;305;7505990;-30
2023/03/15 03:04:58;;;;;;;8.50;1.10;;;;;;;-128.00;-1.00;-1.00;18463;297;7504644;-33
2023/03/15 03:07:24;;;;;;;11.70;1.10;;;;;;;-128.00;-1.00;-1.00;18477;297;7505856;-35
2023/03/15 03:09:50;;;;;;;3.00;0.80;;;;;;;-128.00;-1.00;-1.00;18859;316;7504903;-30
2023/03/15 03:12:17;;;;;;;3.20;1.20;;;;;;;-128.00;-1.00;-1.00;18867;328;7504924;-34
2023/03/15 03:14:44;;;;;;;13.30;1.20;;;;;;;-128.00;-1.00;-1.00;18850;297;7504582;-30
2023/03/15 03:17:10;;;;;;;9.40;1.60;;;;;;;-128.00;-1.00;-1.00;18475;297;7504590;-34
2023/03/15 03:19:36;;;;;;;3.20;1.10;;;;;;;-128.00;-1.00;-1.00;18880;297;7505077;-34
2023/03/15 03:22:03;;;;;;;4.10;1.00;;;;;;;-128.00;-1.00;-1.00;18899;296;7504198;-34
2023/03/15 03:24:28;;;;;;;1.50;1.00;;;;;;;-128.00;-1.00;-1.00;18466;285;7504928;-33
2023/03/15 03:26:57;;;;;;;6.70;1.10;;;;;;;-128.00;-1.00;-1.00;18486;297;7505952;-30
2023/03/15 03:29:24;;;;;;;2.20;0.90;;;;;;;-128.00;-1.00;-1.00;18458;296;7504856;-33
2023/03/15 03:31:49;;;;;;;6.40;0.50;;;;;;;-128.00;-1.00;-1.00;18448;297;7506346;-34
2023/03/15 03:34:15;;;;;;;1.80;0.90;;;;;;;-128.00;-1.00;-1.00;18461;301;7504685;-34
2023/03/15 03:36:42;;;;;;;6.20;2.10;;;;;;;-128.00;-1.00;-1.00;18861;309;7504550;-30
2023/03/15 03:39:08;;;;;;;10.80;3.50;;;;;;;-128.00;-1.00;-1.00;18457;305;7506023;-33
2023/03/15 03:41:34;;;;;;;11.80;1.30;;;;;;;-128.00;-1.00;-1.00;18459;349;7504836;-30
2023/03/15 03:44:00;;;;;;;5.60;1.50;;;;;;;-128.00;-1.00;-1.00;18866;285;7504902;-33
2023/03/15 03:46:27;;;;;;;6.40;2.30;;;;;;;-128.00;-1.00;-1.00;18836;299;7505642;-33
2023/03/15 03:48:53;;;;;;;3.80;0.80;;;;;;;-128.00;-1.00;-1.00;18460;289;7506432;-32
2023/03/15 03:51:19;;;;;;;13.60;1.20;;;;;;;-128.00;-1.00;-1.00;18453;337;7504653;-30
2023/03/15 03:53:45;;;;;;;1.50;0.80;;;;;;;-128.00;-1.00;-1.00;18472;285;7506177;-30
2023/03/15 03:56:11;;;;;;;2.00;1.20;;;;;;;-128.00;-1.00;-1.00;18854;341;7505038;-30
2023/03/15 03:58:37;;;;;;;3.90;1.00;;;;;;;-128.00;-1.00;-1.00;18839;339;7504355;-31
2023/03/15 04:01:04;;;;;;;1.50;0.70;;;;;;;-128.00;-1.00;-1.00;18868;297;7504450;-31
2023/03/15 04:03:30;;;;;;;1.20;0.70;;;;;;;-128.00;-1.00;-1.00;18465;297;7504425;-34
2023/03/15 04:05:56;;;;;;;6.10;0.70;;;;;;;-128.00;-1.00;-1.00;18461;297;7504938;-34
2023/03/15 04:08:22;;;;;;;16.60;4.10;;;;;;;-128.00;-1.00;-1.00;18446;334;7504566;-34
2023/03/15 04:10:52;;;;;;;0.80;0.30;;;;;;;-128.00;-1.00;-1.00;18472;349;7506504;-30
2023/03/15 04:13:19;;;;;;;9.70;1.50;;;;;;;-128.00;-1.00;-1.00;18447;285;7504632;-33
2023/03/15 04:15:46;;;;;;;1.20;0.60;;;;;;;-128.00;-1.00;-1.00;18466;289;7504443;-30
2023/03/15 04:18:12;;;;;;;8.90;0.90;;;;;;;-128.00;-1.00;-1.00;18478;297;7506034;-30
2023/03/15 04:20:38;;;;;;;6.00;0.90;;;;;;;-128.00;-1.00;-1.00;18483;348;7505771;-30
2023/03/15 04:23:06;;;;;;;3.20;1.00;;;;;;;-128.00;-1.00;-1.00;18472;289;7507435;-31
2023/03/15 04:25:32;;;;;;;6.70;1.10;;;;;;;-128.00;-1.00;-1.00;18477;296;7504767;-31
2023/03/15 04:27:57;;;;;;;6.40;1.80;;;;;;;-128.00;-1.00;-1.00;18460;296;7505602;-34
2023/03/15 04:30:28;;;;;;;7.20;0.90;;;;;;;-128.00;-1.00;-1.00;18865;338;7504902;-31
2023/03/15 04:32:57;;;;;;;23.90;2.10;;;;;;;-128.00;-1.00;-1.00;18502;296;7504426;-35
2023/03/15 05:14:38;;;;;;;23.40;1.80;;;;;;;-102.50;19.20;19755.18;34288;295;7504210;-33
2023/03/15 05:17:05;;;;;;;2.40;0.60;;;;;;;-128.00;-1.00;-1.00;18230;296;7504818;-31
2023/03/15 05:19:34;;;;;;;19.20;1.80;;;;;;;-128.00;-1.00;-1.00;18480;296;7506033;-34
2023/03/15 05:22:01;;;;;;;3.60;0.70;;;;;;;-128.00;-1.00;-1.00;18493;303;7505907;-34
2023/03/15 05:24:26;;;;;;;1.50;0.40;;;;;;;-128.00;-1.00;-1.00;18486;295;7506165;-29
2023/03/15 05:26:53;;;;;;;5.40;1.10;;;;;;;-128.00;-1.00;-1.00;18887;295;7505420;-34
2023/03/15 05:29:20;;;;;;;1.90;0.80;;;;;;;-128.00;-1.00;-1.00;18881;296;7504974;-32
2023/03/15 05:31:46;;;;;;;1.20;0.50;;;;;;;-128.00;-1.00;-1.00;18466;295;7505212;-30
2023/03/15 05:34:12;;;;;;;0.90;0.30;;;;;;;-128.00;-1.00;-1.00;18496;296;7504930;-31
2023/03/15 05:36:38;;;;;;;14.00;0.60;;;;;;;-128.00;-1.00;-1.00;18484;347;7505978;-31
2023/03/15 05:39:03;;;;;;;1.50;0.20;;;;;;;-128.00;-1.00;-1.00;18481;295;7506281;-34
2023/03/15 05:41:29;;;;;;;10.70;1.00;;;;;;;-128.00;-1.00;-1.00;18475;299;7504594;-30
2023/03/15 05:43:55;;;;;;;13.90;1.50;;;;;;;-128.00;-1.00;-1.00;18497;295;7506009;-31
2023/03/15 05:46:21;;;;;;;2.90;0.90;;;;;;;-128.00;-1.00;-1.00;18876;295;7504419;-34
2023/03/15 05:48:48;;;;;;;0.60;0.40;;;;;;;-128.00;-1.00;-1.00;18469;295;7504913;-33
2023/03/15 05:51:14;;;;;;;6.80;1.10;;;;;;;-128.00;-1.00;-1.00;18473;295;7504894;-33
2023/03/15 05:53:40;;;;;;;1.90;0.70;;;;;;;-128.00;-1.00;-1.00;18459;347;7506681;-30
2023/03/15 05:56:06;;;;;;;12.90;0.70;;;;;;;-128.00;-1.00;-1.00;18461;306;7506029;-35
2023/03/15 05:58:32;;;;;;;0.50;0.40;;;;;;;-128.00;-1.00;-1.00;18480;295;7504759;-35
2023/03/15 06:01:00;;;;;;;2.10;0.20;;;;;;;-128.00;-1.00;-1.00;18472;347;7506060;-34
2023/03/15 06:03:26;;;;;;;6.50;2.40;;;;;;;-128.00;-1.00;-1.00;18486;319;7505593;-33
2023/03/15 06:05:52;;;;;;;2.60;0.80;;;;;;;-128.00;-1.00;-1.00;18512;287;7504754;-31
2023/03/15 06:08:18;;;;;;;8.40;1.30;;;;;;;-128.00;-1.00;-1.00;18491;287;7504656;-34
2023/03/15 06:10:44;;;;;;;3.50;1.90;;;;;;;-128.00;-1.00;-1.00;18458;295;7504768;-36
2023/03/15 06:13:09;;;;;;;16.80;1.10;;;;;;;-128.00;-1.00;-1.00;18469;295;7504597;-34
2023/03/15 06:15:35;;;;;;;7.10;0.70;;;;;;;-128.00;-1.00;-1.00;18489;335;7505124;-34
2023/03/15 06:18:00;;;;;;;2.80;0.60;;;;;;;-128.00;-1.00;-1.00;18484;295;7506608;-33
2023/03/15 06:20:27;;;;;;;6.40;1.20;;;;;;;-128.00;-1.00;-1.00;18467;297;7504358;-30
2023/03/15 06:22:52;;;;;;;16.10;1.30;;;;;;;-128.00;-1.00;-1.00;18477;288;7504852;-34
2023/03/15 06:25:18;;;;;;;4.80;1.60;;;;;;;-128.00;-1.00;-1.00;18481;288;7504498;-30
2023/03/15 06:27:44;;;;;;;5.90;1.10;;;;;;;-128.00;-1.00;-1.00;18456;296;7504406;-34
2023/03/15 06:30:10;;;;;;;8.10;1.40;;;;;;;-128.00;-1.00;-1.00;18892;295;7505451;-30
2023/03/15 06:32:36;;;;;;;18.90;1.40;;;;;;;-128.00;-1.00;-1.00;18499;295;7505834;-30
2023/03/15 06:35:03;;;;;;;6.30;2.20;;;;;;;-128.00;-1.00;-1.00;18476;295;7508154;-30
2023/03/15 06:37:29;;;;;;;4.10;0.60;;;;;;;-128.00;-1.00;-1.00;18471;295;7504231;-30
2023/03/15 06:39:55;;;;;;;10.90;0.60;;;;;;;-128.00;-1.00;-1.00;18478;295;7504211;-34
2023/03/15 06:42:21;;;;;;;4.00;0.90;;;;;;;-128.00;-1.00;-1.00;18502;295;7505848;-34
2023/03/15 06:44:47;;;;;;;6.90;1.20;;;;;;;-128.00;-1.00;-1.00;18858;295;7504617;-30
2023/03/15 06:47:13;;;;;;;6.50;0.70;;;;;;;-128.00;-1.00;-1.00;18905;347;7504540;-30
2023/03/15 06:49:39;;;;;;;6.60;1.20;;;;;;;-128.00;-1.00;-1.00;18870;295;7504883;-29
2023/03/15 06:52:06;;;;;;;14.90;1.10;;;;;;;-128.00;-1.00;-1.00;18889;284;7505090;-33
2023/03/15 06:54:32;;;;;;;4.00;1.40;;;;;;;-128.00;-1.00;-1.00;18482;296;7505095;-34
2023/03/15 06:56:58;;;;;;;3.90;1.10;;;;;;;-128.00;-1.00;-1.00;18480;336;7504825;-31
2023/03/15 06:59:24;;;;;;;0.80;0.70;;;;;;;-128.00;-1.00;-1.00;18465;295;7506186;-31
2023/03/15 07:01:50;;;;;;;4.60;0.60;;;;;;;-128.00;-1.00;-1.00;18455;284;7505972;-34
2023/03/15 07:04:16;;;;;;;3.00;1.10;;;;;;;-128.00;-1.00;-1.00;18878;295;7504267;-34
2023/03/15 07:06:42;;;;;;;6.00;0.90;;;;;;;-128.00;-1.00;-1.00;18881;295;7505555;-33
2023/03/15 07:09:08;;;;;;;9.70;1.60;;;;;;;-128.00;-1.00;-1.00;18880;343;7504367;-34
2023/03/15 07:11:35;;;;;;;11.00;2.30;;;;;;;-128.00;-1.00;-1.00;18877;295;7504342;-31
2023/03/15 07:14:01;;;;;;;5.70;1.00;;;;;;;-128.00;-1.00;-1.00;18883;295;7504628;-31
2023/03/15 07:16:27;;;;;;;6.50;0.80;;;;;;;-128.00;-1.00;-1.00;18884;288;7504508;-30
2023/03/15 07:18:55;;;;;;;6.30;0.90;;;;;;;-128.00;-1.00;-1.00;18866;296;7505962;-30
2023/03/15 07:21:24;;;;;;;7.40;1.10;;;;;;;-128.00;-1.00;-1.00;18459;289;7504134;-30
2023/03/15 07:23:50;;;;;;;2.50;1.30;;;;;;;-128.00;-1.00;-1.00;18492;295;7506128;-34
2023/03/15 07:26:16;;;;;;;10.20;1.40;;;;;;;-128.00;-1.00;-1.00;18483;295;7505261;-33
2023/03/15 07:28:43;;;;;;;2.20;0.70;;;;;;;-128.00;-1.00;-1.00;18502;288;7506838;-30
2023/03/15 07:31:10;;;;;;;4.80;0.90;;;;;;;-128.00;-1.00;-1.00;18462;288;7507083;-35
2023/03/15 07:33:36;;;;;;;22.00;1.70;;;;;;;-128.00;-1.00;-1.00;18484;311;7504647;-30
2023/03/15 07:36:03;;;;;;;9.20;1.00;;;;;;;-128.00;-1.00;-1.00;18481;295;7506177;-33
2023/03/15 07:38:29;;;;;;;17.40;1.20;;;;;;;-128.00;-1.00;-1.00;18461;295;7505821;-33
2023/03/15 07:40:54;;;;;;;12.60;0.60;;;;;;;-128.00;-1.00;-1.00;18479;295;7505941;-36
2023/03/15 07:43:20;;;;;;;2.30;0.90;;;;;;;-128.00;-1.00;-1.00;18468;287;7505828;-34
2023/03/15 07:45:46;;;;;;;17.30;3.60;;;;;;;-128.00;-1.00;-1.00;18486;288;7504517;-30
2023/03/15 07:48:11;;;;;;;8.30;2.10;;;;;;;-128.00;-1.00;-1.00;18481;295;7504633;-33
2023/03/15 07:50:38;;;;;;;7.60;2.90;;;;;;;-128.00;-1.00;-1.00;18464;295;7504586;-34
2023/03/15 07:53:04;;;;;;;2.20;1.00;;;;;;;-128.00;-1.00;-1.00;18483;299;7504728;-30
2023/03/15 07:55:31;;;;;;;7.60;2.00;;;;;;;-128.00;-1.00;-1.00;18482;295;7505594;-30
2023/03/15 07:57:56;;;;;;;8.20;3.00;;;;;;;-128.00;-1.00;-1.00;18492;288;7505758;-34
2023/03/15 08:00:22;;;;;;;9.90;3.50;;;;;;;-128.00;-1.00;-1.00;18470;297;7504396;-30
2023/03/15 08:02:48;;;;;;;5.50;1.10;;;;;;;-128.00;-1.00;-1.00;18492;295;7504585;-30
2023/03/15 08:05:17;;;;;;;3.50;1.60;;;;;;;-128.00;-1.00;-1.00;18486;295;7504806;-33
2023/03/15 08:07:46;;;;;;;3.20;1.00;;;;;;;-128.00;-1.00;-1.00;18458;288;7504189;-31
2023/03/15 08:10:12;;;;;;;0.60;0.30;;;;;;;-128.00;-1.00;-1.00;18455;296;7504718;-30
2023/03/15 08:12:40;;;;;;;10.20;1.40;;;;;;;-128.00;-1.00;-1.00;18485;295;7504869;-30
2023/03/15 08:15:12;;;;;;;12.80;2.40;;;;;;;-128.00;-1.00;-1.00;18482;297;7504698;-30
2023/03/15 08:17:38;;;;;;;9.40;0.80;;;;;;;-128.00;-1.00;-1.00;18456;295;7506205;-30
2023/03/15 08:20:07;;;;;;;10.40;1.30;;;;;;;-128.00;-1.00;-1.00;18479;287;7505876;-30
2023/03/15 08:22:32;;;;;;;8.10;1.30;;;;;;;-128.00;-1.00;-1.00;18479;287;7505130;-30
2023/03/15 08:24:58;;;;;;;12.00;1.00;;;;;;;-128.00;-1.00;-1.00;18914;296;7504488;-30
2023/03/15 08:27:24;;;;;;;19.00;2.70;;;;;;;-128.00;-1.00;-1.00;18872;284;7504625;-31
2023/03/15 08:29:51;;;;;;;6.90;0.90;;;;;;;-128.00;-1.00;-1.00;18914;295;7504272;-30
2023/03/15 08:32:17;;;;;;;4.30;1.00;;;;;;;-128.00;-1.00;-1.00;18881;295;7505438;-31
2023/03/15 08:34:44;;;;;;;5.40;1.70;;;;;;;-128.00;-1.00;-1.00;18882;288;7504398;-30
2023/03/15 08:37:10;;;;;;;2.10;0.70;;;;;;;-128.00;-1.00;-1.00;18456;295;7504535;-33
2023/03/15 08:39:37;;;;;;;10.00;1.80;;;;;;;-128.00;-1.00;-1.00;18496;297;7505849;-30
2023/03/15 08:42:03;;;;;;;22.50;1.80;;;;;;;-128.00;-1.00;-1.00;18490;295;7504674;-34
2023/03/15 08:44:29;;;;;;;11.00;1.20;;;;;;;-128.00;-1.00;-1.00;18458;323;7504517;-33
2023/03/15 08:46:55;;;;;;;5.10;1.20;;;;;;;-128.00;-1.00;-1.00;18487;295;7504603;-31
2023/03/15 08:49:21;;;;;;;4.50;1.00;;;;;;;-128.00;-1.00;-1.00;18484;296;7505670;-33
2023/03/15 08:51:46;;;;;;;8.90;2.60;;;;;;;-128.00;-1.00;-1.00;18504;295;7504535;-34
2023/03/15 08:54:13;;;;;;;11.50;3.60;;;;;;;-128.00;-1.00;-1.00;18479;288;7504656;-31
2023/03/15 08:56:40;;;;;;;8.30;3.70;;;;;;;-128.00;-1.00;-1.00;18471;296;7504827;-33
2023/03/15 08:59:06;;;;;;;4.60;1.40;;;;;;;-128.00;-1.00;-1.00;18482;295;7504745;-34
2023/03/15 09:01:32;;;;;;;3.50;0.70;;;;;;;-128.00;-1.00;-1.00;18462;295;7505227;-34
2023/03/15 09:03:58;;;;;;;9.80;2.40;;;;;;;-128.00;-1.00;-1.00;18472;285;7506965;-31
2023/03/15 09:06:24;;;;;;;12.80;1.20;;;;;;;-128.00;-1.00;-1.00;18892;297;7505182;-31
2023/03/15 09:08:52;;;;;;;9.00;1.00;;;;;;;-128.00;-1.00;-1.00;18874;295;7504656;-31
2023/03/15 09:11:19;;;;;;;2.90;0.60;;;;;;;-128.00;-1.00;-1.00;18500;295;7504431;-34
2023/03/15 09:13:44;;;;;;;19.00;1.60;;;;;;;-128.00;-1.00;-1.00;18504;289;7504331;-31
2023/03/15 09:16:10;;;;;;;1.90;1.00;;;;;;;-128.00;-1.00;-1.00;18488;295;7504828;-33
2023/03/15 09:18:36;;;;;;;10.70;1.10;;;;;;;-128.00;-1.00;-1.00;18880;289;7504119;-34
2023/03/15 09:21:04;;;;;;;7.40;1.40;;;;;;;-128.00;-1.00;-1.00;18452;288;7504208;-34
2023/03/15 09:23:30;;;;;;;8.40;1.50;;;;;;;-128.00;-1.00;-1.00;18438;295;7506468;-30
2023/03/15 09:25:55;;;;;;;5.10;0.90;;;;;;;-128.00;-1.00;-1.00;18448;347;7507227;-34
2023/03/15 09:28:21;;;;;;;7.20;1.00;;;;;;;-128.00;-1.00;-1.00;18478;288;7506056;-30
2023/03/15 09:30:46;;;;;;;1.30;0.70;;;;;;;-128.00;-1.00;-1.00;18459;295;7504818;-34
2023/03/15 09:33:13;;;;;;;1.30;0.60;;;;;;;-128.00;-1.00;-1.00;18459;295;7505814;-31
2023/03/15 09:35:40;;;;;;;5.20;1.10;;;;;;;-128.00;-1.00;-1.00;18489;285;7506660;-34
2023/03/15 09:38:06;;;;;;;4.20;1.10;;;;;;;-128.00;-1.00;-1.00;18490;295;7504181;-34
2023/03/15 09:40:33;;;;;;;8.40;1.20;;;;;;;-128.00;-1.00;-1.00;18478;295;7504719;-35
2023/03/15 09:43:22;;;;;;;1.40;0.70;;;;;;;-128.00;-1.00;-1.00;18481;308;7505498;-32
2023/03/15 09:46:19;;;;;;;7.60;2.00;;;;;;;-128.00;-1.00;-1.00;18469;296;7506132;-31
2023/03/15 09:48:49;;;;;;;8.70;1.90;;;;;;;-128.00;-1.00;-1.00;18461;288;7505960;-30
2023/03/15 09:51:31;;;;;;;8.80;0.60;;;;;;;-128.00;-1.00;-1.00;18471;284;7504816;-34
2023/03/15 09:53:59;;;;;;;3.80;1.20;;;;;;;-128.00;-1.00;-1.00;18479;295;7504136;-30
2023/03/15 09:56:48;;;;;;;2.80;0.90;;;;;;;-128.00;-1.00;-1.00;18463;295;7504951;-34
2023/03/15 09:59:21;;;;;;;6.70;1.00;;;;;;;-128.00;-1.00;-1.00;18470;295;7504743;-30
2023/03/15 10:01:47;;;;;;;9.20;1.20;;;;;;;-128.00;-1.00;-1.00;18496;284;7504163;-34
2023/03/15 10:04:22;;;;;;;4.30;0.70;;;;;;;-128.00;-1.00;-1.00;18476;296;7504420;-31
2023/03/15 10:06:51;;;;;;;4.90;1.30;;;;;;;-128.00;-1.00;-1.00;18490;288;7504375;-31
2023/03/15 10:09:20;;;;;;;7.10;0.90;;;;;;;-128.00;-1.00;-1.00;18476;348;7505844;-31
2023/03/15 10:11:56;;;;;;;3.90;0.90;;;;;;;-128.00;-1.00;-1.00;18455;338;7504270;-31
2023/03/15 10:14:29;;;;;;;2.40;0.50;;;;;;;-128.00;-1.00;-1.00;18472;295;7504955;-31
2023/03/15 10:16:55;;;;;;;0.50;0.20;;;;;;;-128.00;-1.00;-1.00;18475;347;7504401;-34
2023/03/15 10:19:38;;;;;;;4.00;0.90;;;;;;;-128.00;-1.00;-1.00;18496;297;7504697;-30
2023/03/15 10:22:32;;;;;;;4.20;0.50;;;;;;;-128.00;-1.00;-1.00;18463;348;7505821;-31
2023/03/15 10:24:59;;;;;;;;;;;;;;;-128.00;-1.00;-1.00;18480;295;7506046;-30
2023/03/15 10:27:33;;;;;;;4.30;0.70;;;;;;;-128.00;-1.00;-1.00;18488;347;7504491;-31
2023/03/15 10:29:59;;;;;;;5.10;0.60;;;;;;;-128.00;-1.00;-1.00;18479;288;7504713;-30
2023/03/15 10:32:29;;;;;;;11.20;0.60;;;;;;;-128.00;-1.00;-1.00;18472;296;7504674;-30
2023/03/15 10:34:56;;;;;;;2.60;0.40;;;;;;;-128.00;-1.00;-1.00;18486;288;7504685;-33
2023/03/15 10:37:23;;;;;;;3.50;0.80;;;;;;;-128.00;-1.00;-1.00;18471;297;7504375;-30
2023/03/15 10:39:50;;;;;;;2.30;0.60;;;;;;;-128.00;-1.00;-1.00;18477;295;7504764;-30
2023/03/15 10:42:29;;;;;;;3.20;0.60;;;;;;;-128.00;-1.00;-1.00;18470;296;7505117;-30
2023/03/15 10:44:55;;;;;;;1.40;0.50;;;;;;;-128.00;-1.00;-1.00;18487;344;7505998;-30
2023/03/15 10:47:21;;;;;;;2.30;0.60;;;;;;;-128.00;-1.00;-1.00;18495;295;7504641;-33
2023/03/15 10:49:48;;;;;;;1.90;0.70;;;;;;;-128.00;-1.00;-1.00;18479;295;7504835;-33
2023/03/15 10:52:27;;;;;;;7.00;0.80;;;;;;;-128.00;-1.00;-1.00;18461;340;7505960;-30
2023/03/15 10:54:53;;;;;;;6.70;0.60;;;;;;;-128.00;-1.00;-1.00;18489;296;7505113;-34
2023/03/15 10:57:19;;;;;;;4.50;0.70;;;;;;;-128.00;-1.00;-1.00;18457;336;7504909;-30
2023/03/15 10:59:51;;;;;;;5.10;0.90;;;;;;;-128.00;-1.00;-1.00;18487;297;7505891;-34
2023/03/15 11:02:22;;;;;;;4.10;1.50;;;;;;;-128.00;-1.00;-1.00;18469;295;7505534;-31
2023/03/15 11:46:43;;;;;;;4.70;0.90;;;;;;;6.37;63.81;99142.08;101002;295;557358;-30
2023/03/15 11:49:33;;;;;;;9.40;1.50;;;;;;;6.60;60.76;99149.57;101024;285;420750;-33
2023/03/15 11:51:59;;;;;;;2.70;0.60;;;;;;;6.56;60.73;99150.56;101323;286;67992;-34
2023/03/15 11:54:28;;;;;;;4.90;1.60;;;;;;;-20.35;48.38;74822.23;99011;295;1002534;-36
2023/03/15 11:56:55;;;;;;;4.10;0.60;;;;;;;-128.00;-1.00;-1.00;97952;286;1005344;-35
2023/03/15 11:59:29;;;;;;;3.20;0.70;;;;;;;-128.00;-1.00;-1.00;97922;295;1004240;-30
2023/03/15 12:01:57;;;;;;;2.50;0.90;;;;;;;-128.00;-1.00;-1.00;97851;295;1003570;-30
2023/03/15 12:04:43;;;;;;;4.10;0.70;;;;;;;-128.00;-1.00;-1.00;97919;295;1003239;-33
2023/03/15 12:07:28;;;;;;;14.70;0.80;;;;;;;-128.00;-1.00;-1.00;97851;295;1003248;-34
2023/03/15 12:10:18;;;;;;;4.60;0.60;;;;;;;-128.00;-1.00;-1.00;97959;292;1004162;-34
2023/03/15 12:12:45;;;;;;;3.50;0.70;;;;;;;-128.00;-1.00;-1.00;97829;295;1003404;-29
2023/03/15 12:15:47;;;;;;;2.60;0.50;;;;;;;-128.00;-1.00;-1.00;97894;295;1002717;-33
2023/03/15 12:18:14;;;;;;;2.30;0.60;;;;;;;-128.00;-1.00;-1.00;81126;295;7503759;-35
2023/03/15 12:20:42;;;;;;;11.70;1.10;;;;;;;-128.00;-1.00;-1.00;18975;294;7504886;-30
2023/03/15 12:23:31;;;;;;;3.10;0.70;;;;;;;-128.00;-1.00;-1.00;18508;307;7505376;-31
2023/03/15 12:26:09;;;;;;;1.20;0.70;;;;;;;-128.00;-1.00;-1.00;18494;295;7505792;-35
2023/03/15 12:28:40;;;;;;;4.10;0.80;;;;;;;-128.00;-1.00;-1.00;18488;295;7504721;-35
2023/03/15 12:31:08;;;;;;;4.20;1.20;;;;;;;-128.00;-1.00;-1.00;18479;288;7504663;-31
2023/03/15 12:33:44;;;;;;;3.90;1.40;;;;;;;-128.00;-1.00;-1.00;18456;346;7504817;-30
2023/03/15 12:36:34;;;;;;;3.70;0.70;;;;;;;-128.00;-1.00;-1.00;18496;295;7505213;-32
2023/03/15 12:39:18;;;;;;;5.10;0.60;;;;;;;-128.00;-1.00;-1.00;18467;295;7505612;-35
2023/03/15 12:41:45;;;;;;;2.70;0.80;;;;;;;-128.00;-1.00;-1.00;18497;295;7505960;-31
2023/03/15 12:44:42;;;;;;;5.40;0.70;;;;;;;-128.00;-1.00;-1.00;18497;295;7504389;-34
2023/03/15 12:47:09;;;;;;;1.70;0.40;;;;;;;-128.00;-1.00;-1.00;18494;288;7504658;-34
2023/03/15 12:49:41;;;;;;;1.90;0.60;;;;;;;-128.00;-1.00;-1.00;18499;295;7506406;-31
2023/03/15 12:52:33;;;;;;;2.90;0.70;;;;;;;-128.00;-1.00;-1.00;18473;295;7504604;-31
2023/03/15 12:55:03;;;;;;;2.70;1.00;;;;;;;-128.00;-1.00;-1.00;18500;295;7505943;-35
2023/03/15 12:57:34;;;;;;;3.60;1.10;;;;;;;-128.00;-1.00;-1.00;18483;295;7504606;-35
2023/03/15 13:00:14;;;;;;;4.10;0.70;;;;;;;-128.00;-1.00;-1.00;18478;295;7504051;-35